createdAt,value
2023-06-07T00:01:18.673Z,56.72
2023-06-07T00:06:22.409Z,56.40
2023-06-07T00:11:25.305Z,56.32
2023-06-07T00:16:28.538Z,56.06
2023-06-07T00:21:31.618Z,55.99
2023-06-07T00:26:34.615Z,55.92
2023-06-07T00:31:38.126Z,56.05
2023-06-07T00:36:41.297Z,56.22
2023-06-07T00:41:44.405Z,56.44
2023-06-07T00:46:47.581Z,56.76
2023-06-07T00:51:51.533Z,57.00
2023-06-07T00:56:54.677Z,57.65
2023-06-07T01:01:58.948Z,59.53
2023-06-07T01:07:05.588Z,61.88
2023-06-07T01:12:16.181Z,62.69
2023-06-07T01:17:25.703Z,63.61
2023-06-07T01:22:34.083Z,63.74
2023-06-07T01:27:41.328Z,62.42
2023-06-07T01:32:45.482Z,63.44
2023-06-07T01:37:49.787Z,64.05
2023-06-07T01:42:55.201Z,64.01
2023-06-07T01:47:58.687Z,64.86
2023-06-07T01:53:01.688Z,65.58
2023-06-07T01:58:37.714Z,65.08
2023-06-07T02:03:46.712Z,64.49
2023-06-07T02:08:56.194Z,64.10
2023-06-07T02:14:00.488Z,64.76
2023-06-07T02:19:08.391Z,65.61
2023-06-07T02:24:12.369Z,64.72
2023-06-07T02:29:15.847Z,64.96
2023-06-07T02:34:18.778Z,64.82
2023-06-07T02:39:22.650Z,65.15
2023-06-07T02:44:25.732Z,65.96
2023-06-07T02:49:28.637Z,66.82
2023-06-07T02:54:31.708Z,66.00
2023-06-07T02:59:35.014Z,64.85
2023-06-07T03:04:39.694Z,64.73
2023-06-07T03:09:42.882Z,65.04
2023-06-07T03:14:46.165Z,65.29
2023-06-07T03:19:49.941Z,65.40
2023-06-07T03:24:55.390Z,65.01
2023-06-07T03:29:58.454Z,64.54
2023-06-07T03:35:01.457Z,63.78
2023-06-07T03:40:05.489Z,63.19
2023-06-07T03:45:09.471Z,62.74
2023-06-07T03:50:12.610Z,62.01
2023-06-07T03:55:16.228Z,60.62
2023-06-07T04:00:19.655Z,59.83
2023-06-07T04:05:25.807Z,58.76
2023-06-07T04:10:28.687Z,57.86
2023-06-07T04:15:31.711Z,57.38
2023-06-07T04:20:34.637Z,56.65
2023-06-07T04:25:37.573Z,55.85
2023-06-07T04:30:43.871Z,55.06
2023-06-07T04:35:47.665Z,53.67
2023-06-07T04:40:51.617Z,53.56
2023-06-07T04:45:58.254Z,53.17
2023-06-07T04:51:06.942Z,52.99
2023-06-07T04:56:11.162Z,52.63
2023-06-07T05:01:14.736Z,52.67
2023-06-07T05:06:18.678Z,52.49
2023-06-07T05:11:21.681Z,51.79
2023-06-07T05:16:25.942Z,50.28
2023-06-07T05:21:29.300Z,49.17
2023-06-07T05:26:32.266Z,47.40
2023-06-07T05:31:35.325Z,47.65
2023-06-07T05:36:38.276Z,46.69
2023-06-07T05:41:41.364Z,45.91
2023-06-07T05:46:44.292Z,45.73
2023-06-07T05:51:47.337Z,45.35
2023-06-07T05:56:53.496Z,44.42
2023-06-07T06:01:57.466Z,44.56
2023-06-07T06:07:01.880Z,43.30
2023-06-07T06:12:07.741Z,42.99
2023-06-07T06:17:13.107Z,41.48
2023-06-07T06:22:16.102Z,41.15
2023-06-07T06:27:21.990Z,40.56
2023-06-07T06:32:25.301Z,40.01
2023-06-07T06:37:28.588Z,39.07
2023-06-07T06:42:31.954Z,38.22
2023-06-07T06:47:37.419Z,37.53
2023-06-07T06:52:42.781Z,37.34
2023-06-07T06:57:45.821Z,37.69
2023-06-07T07:02:49.152Z,37.13
2023-06-07T07:07:52.419Z,37.03
2023-06-07T07:12:55.746Z,36.28
2023-06-07T07:17:58.835Z,36.03
2023-06-07T07:23:03.317Z,34.53
2023-06-07T07:28:06.620Z,34.38
2023-06-07T07:33:09.597Z,34.43
2023-06-07T07:38:17.188Z,33.43
2023-06-07T07:43:20.162Z,33.22
2023-06-07T07:48:23.384Z,33.03
2023-06-07T07:53:26.381Z,32.90
2023-06-07T07:58:29.269Z,32.18
2023-06-07T08:03:33.892Z,30.05
2023-06-07T08:08:38.581Z,29.55
2023-06-07T08:13:41.655Z,27.93
2023-06-07T08:18:46.776Z,28.42
2023-06-07T08:23:50.820Z,27.70
2023-06-07T08:28:54.001Z,28.00
2023-06-07T08:33:57.050Z,26.99
2023-06-07T08:39:00.110Z,26.98
2023-06-07T08:44:04.326Z,26.53
2023-06-07T08:49:09.570Z,26.58
2023-06-07T08:54:19.495Z,25.66
2023-06-07T08:59:28.284Z,25.64
2023-06-07T09:04:31.800Z,26.14
2023-06-07T09:09:36.662Z,26.25
2023-06-07T09:14:41.423Z,26.18
2023-06-07T09:19:44.780Z,26.32
2023-06-07T09:24:47.878Z,25.92
2023-06-07T09:29:51.071Z,25.97
2023-06-07T09:35:14.190Z,26.30
2023-06-07T09:40:20.222Z,26.26
2023-06-07T09:45:25.185Z,26.14
2023-06-07T09:50:29.523Z,25.43
2023-06-07T09:55:33.499Z,25.42
2023-06-07T10:00:44.514Z,24.61
2023-06-07T10:05:48.341Z,24.07
2023-06-07T10:10:53.777Z,23.17
2023-06-07T10:15:57.384Z,24.23
2023-06-07T10:21:14.936Z,24.59
2023-06-07T10:26:30.287Z,24.52
2023-06-07T10:31:40.984Z,24.43
2023-06-07T10:36:44.002Z,25.26
2023-06-07T10:41:47.163Z,25.19
2023-06-07T10:46:52.259Z,25.26
2023-06-07T10:52:00.538Z,24.98
2023-06-07T10:57:04.405Z,24.25
2023-06-07T11:02:25.240Z,24.39
2023-06-07T11:07:33.054Z,25.27
2023-06-07T11:12:36.777Z,24.88
2023-06-07T11:18:13.500Z,25.17
2023-06-07T11:23:29.997Z,25.39
2023-06-07T11:28:39.149Z,25.60
2023-06-07T11:33:44.397Z,26.26
2023-06-07T11:38:53.405Z,26.34
2023-06-07T11:43:57.894Z,26.14
2023-06-07T11:49:09.082Z,25.64
2023-06-07T11:54:12.419Z,25.40
2023-06-07T11:59:16.940Z,25.35
2023-06-07T12:04:22.826Z,26.68
2023-06-07T12:09:28.110Z,27.17
2023-06-07T12:14:35.327Z,26.62
2023-06-07T12:19:38.628Z,26.57
2023-06-07T12:24:42.075Z,25.69
2023-06-07T12:29:54.624Z,24.28
2023-06-07T12:35:03.806Z,24.06
2023-06-07T12:40:10.266Z,23.86
2023-06-07T12:45:14.046Z,24.00
2023-06-07T12:50:18.092Z,24.80
2023-06-07T12:55:22.533Z,25.49
2023-06-07T13:00:25.770Z,25.60
2023-06-07T13:05:30.040Z,25.61
2023-06-07T13:10:33.305Z,25.60
2023-06-07T13:15:37.499Z,25.23
2023-06-07T13:20:40.840Z,24.36
2023-06-07T13:25:44.410Z,23.58
2023-06-07T13:30:47.429Z,23.64
2023-06-07T13:35:52.009Z,23.25
2023-06-07T13:40:58.939Z,22.89
2023-06-07T13:46:05.345Z,22.93
2023-06-07T13:51:13.632Z,22.64
2023-06-07T13:56:18.119Z,22.64
2023-06-07T14:01:22.327Z,22.49
2023-06-07T14:06:28.681Z,22.72
2023-06-07T14:11:32.420Z,22.39
2023-06-07T14:16:35.813Z,22.83
2023-06-07T14:21:39.290Z,22.99
2023-06-07T14:26:42.318Z,22.49
2023-06-07T14:31:45.332Z,22.68
2023-06-07T14:36:48.308Z,23.15
2023-06-07T14:41:51.322Z,23.64
2023-06-07T14:46:54.246Z,23.25
2023-06-07T14:51:57.257Z,23.70
2023-06-07T14:57:00.185Z,23.54
2023-06-07T15:02:03.383Z,23.90
2023-06-07T15:07:07.360Z,24.20
2023-06-07T15:12:11.646Z,24.75
2023-06-07T15:17:14.566Z,26.50
2023-06-07T15:22:17.545Z,26.90
2023-06-07T15:27:20.673Z,27.97
2023-06-07T15:32:23.788Z,28.97
2023-06-07T15:37:26.908Z,29.97
2023-06-07T15:42:29.974Z,29.45
2023-06-07T15:47:33.026Z,28.13
2023-06-07T15:52:36.030Z,26.32
2023-06-07T15:57:38.882Z,25.70
2023-06-07T16:02:41.855Z,25.30
2023-06-07T16:07:44.831Z,25.66
2023-06-07T16:12:48.814Z,25.82
2023-06-07T16:17:53.650Z,26.25
2023-06-07T16:22:56.761Z,26.11
2023-06-07T16:27:59.811Z,26.61
2023-06-07T16:33:04.134Z,26.65
2023-06-07T16:38:07.405Z,27.01
2023-06-07T16:43:10.414Z,27.20
2023-06-07T16:48:13.623Z,27.55
2023-06-07T16:53:16.681Z,27.70
2023-06-07T16:58:19.788Z,27.90
2023-06-07T17:03:22.787Z,27.58
2023-06-07T17:08:25.890Z,27.56
2023-06-07T17:13:28.834Z,28.09
2023-06-07T17:18:31.888Z,28.05
2023-06-07T17:23:34.978Z,28.09
2023-06-07T17:28:38.121Z,28.60
2023-06-07T17:33:43.011Z,28.65
2023-06-07T17:38:49.698Z,28.93
2023-06-07T17:43:52.988Z,29.14
2023-06-07T17:48:56.165Z,29.58
2023-06-07T17:54:02.391Z,30.58
2023-06-07T17:59:05.503Z,31.23
2023-06-07T18:04:11.436Z,32.22
2023-06-07T18:09:14.564Z,33.76
2023-06-07T18:14:18.666Z,35.06
2023-06-07T18:19:21.867Z,35.54
2023-06-07T18:24:25.659Z,36.22
2023-06-07T18:29:31.010Z,36.46
2023-06-07T18:34:35.300Z,36.73
2023-06-07T18:39:38.611Z,36.99
2023-06-07T18:44:43.845Z,37.35
2023-06-07T18:49:49.728Z,37.74
2023-06-07T18:54:53.501Z,38.22
2023-06-07T18:59:56.494Z,38.69
2023-06-07T19:04:59.844Z,39.19
2023-06-07T19:10:03.682Z,39.76
2023-06-07T19:15:11.111Z,40.22
2023-06-07T19:20:14.783Z,40.71
2023-06-07T19:25:18.247Z,41.22
2023-06-07T19:30:24.535Z,41.58
2023-06-07T19:35:29.875Z,41.93
2023-06-07T19:40:33.498Z,42.33
2023-06-07T19:45:42.757Z,42.44
2023-06-07T19:50:47.077Z,42.74
2023-06-07T19:55:55.439Z,43.22
2023-06-07T20:00:59.189Z,43.76
2023-06-07T20:06:03.326Z,44.19
2023-06-07T20:11:06.534Z,44.51
2023-06-07T20:16:12.653Z,44.74
2023-06-07T20:21:16.137Z,44.96
2023-06-07T20:26:19.194Z,45.35
2023-06-07T20:31:22.698Z,45.70
2023-06-07T20:36:27.364Z,46.01
2023-06-07T20:41:30.425Z,46.85
2023-06-07T20:46:33.982Z,47.17
2023-06-07T20:51:38.505Z,47.19
2023-06-07T20:56:41.646Z,47.54
2023-06-07T21:01:44.924Z,48.48
2023-06-07T21:06:48.274Z,49.26
2023-06-07T21:11:51.550Z,49.94
2023-06-07T21:16:54.758Z,50.42
2023-06-07T21:21:57.988Z,50.63
2023-06-07T21:27:01.463Z,50.49
2023-06-07T21:32:05.330Z,50.53
2023-06-07T21:37:14.667Z,50.47
2023-06-07T21:42:20.835Z,50.51
2023-06-07T21:47:23.965Z,50.82
2023-06-07T21:52:28.496Z,50.90
2023-06-07T21:57:32.477Z,51.53
2023-06-07T22:02:36.025Z,51.86
2023-06-07T22:07:40.243Z,52.47
2023-06-07T22:12:43.524Z,51.97
2023-06-07T22:17:48.995Z,52.06
2023-06-07T22:22:54.634Z,52.22
2023-06-07T22:27:59.235Z,52.03
2023-06-07T22:33:05.987Z,52.56
2023-06-07T22:38:13.599Z,54.01
2023-06-07T22:43:17.194Z,53.47
2023-06-07T22:48:21.561Z,53.97
2023-06-07T22:53:25.326Z,53.81
2023-06-07T22:58:28.360Z,54.29
2023-06-07T23:03:32.027Z,54.79
2023-06-07T23:08:35.261Z,56.40
2023-06-07T23:13:38.392Z,57.03
2023-06-07T23:18:41.921Z,56.92
2023-06-07T23:23:50.892Z,57.53
2023-06-07T23:28:54.098Z,57.47
2023-06-07T23:33:57.080Z,57.49
2023-06-07T23:39:00.173Z,58.09
2023-06-07T23:44:03.341Z,57.50
2023-06-07T23:49:07.007Z,57.09
2023-06-07T23:54:12.981Z,56.70
2023-06-07T23:59:16.348Z,56.70
